createdAt,value
2022-09-28T00:01:23.015Z,8.05
2022-09-28T00:03:59.656Z,7.13
2022-09-28T00:06:28.537Z,4.22
2022-09-28T00:08:55.388Z,6.60
2022-09-28T00:11:31.887Z,6.82
2022-09-28T00:14:02.358Z,7.63
2022-09-28T00:16:31.770Z,5.18
2022-09-28T00:18:58.603Z,8.93
2022-09-28T00:21:29.361Z,10.10
2022-09-28T00:24:18.770Z,8.43
2022-09-28T00:26:57.880Z,10.00
2022-09-28T00:29:27.201Z,9.52
2022-09-28T00:32:04.702Z,10.15
2022-09-28T00:34:35.251Z,9.63
2022-09-28T00:37:03.227Z,9.05
2022-09-28T00:39:32.578Z,4.95
2022-09-28T00:41:59.708Z,4.95
2022-09-28T00:44:26.029Z,8.75
2022-09-28T00:47:00.541Z,9.68
2022-09-28T00:49:49.667Z,9.95
2022-09-28T00:52:23.893Z,8.93
2022-09-28T00:54:53.629Z,10.23
2022-09-28T00:57:21.384Z,7.00
2022-09-28T00:59:50.095Z,5.93
2022-09-28T01:02:16.653Z,9.60
2022-09-28T01:04:43.047Z,5.50
2022-09-28T01:07:12.727Z,9.52
2022-09-28T01:09:40.623Z,9.50
2022-09-28T01:12:08.171Z,9.15
2022-09-28T01:14:34.665Z,6.20
2022-09-28T01:17:46.136Z,9.35
2022-09-28T01:20:12.755Z,9.38
2022-09-28T01:22:42.494Z,9.52
2022-09-28T01:25:37.352Z,11.05
2022-09-28T01:28:19.186Z,10.23
2022-09-28T01:31:07.575Z,8.10
2022-09-28T01:33:41.703Z,5.90
2022-09-28T01:36:39.483Z,9.82
2022-09-28T01:39:10.855Z,9.20
2022-09-28T01:41:40.225Z,10.82
2022-09-28T01:44:10.294Z,8.75
2022-09-28T01:46:38.002Z,9.02
2022-09-28T01:49:27.013Z,9.93
2022-09-28T01:52:13.170Z,10.00
2022-09-28T01:55:11.977Z,9.80
2022-09-28T01:57:51.925Z,7.20
2022-09-28T02:00:19.571Z,10.25
2022-09-28T02:03:12.212Z,5.15
2022-09-28T02:05:48.073Z,5.20
2022-09-28T02:08:14.466Z,6.78
2022-09-28T02:10:48.213Z,8.07
2022-09-28T02:13:19.656Z,9.07
2022-09-28T02:15:50.852Z,8.20
2022-09-28T02:18:17.831Z,7.38
2022-09-28T02:20:49.200Z,6.97
2022-09-28T02:23:16.108Z,7.63
2022-09-28T02:25:58.148Z,6.15
2022-09-28T02:28:24.804Z,6.50
2022-09-28T02:30:51.250Z,4.13
2022-09-28T02:33:25.464Z,4.47
2022-09-28T02:35:51.986Z,3.45
2022-09-28T02:38:18.426Z,4.43
2022-09-28T02:40:53.181Z,2.90
2022-09-28T02:43:55.650Z,2.70
2022-09-28T02:46:32.812Z,2.42
2022-09-28T02:49:24.786Z,2.72
2022-09-28T02:52:16.280Z,1.80
2022-09-28T02:55:05.180Z,2.30
2022-09-28T02:57:39.970Z,2.80
2022-09-28T03:00:24.854Z,2.42
2022-09-28T03:03:01.458Z,1.75
2022-09-28T03:05:38.885Z,2.35
2022-09-28T03:08:40.757Z,1.42
2022-09-28T03:11:10.721Z,2.97
2022-09-28T03:13:37.783Z,2.95
2022-09-28T03:16:12.214Z,2.20
2022-09-28T03:18:39.093Z,1.50
2022-09-28T03:21:08.402Z,2.42
2022-09-28T03:23:34.821Z,2.65
2022-09-28T03:26:01.233Z,2.60
2022-09-28T03:28:27.916Z,1.30
2022-09-28T03:30:54.386Z,3.00
2022-09-28T03:33:21.119Z,3.00
2022-09-28T03:35:50.274Z,2.67
2022-09-28T03:38:18.351Z,1.52
2022-09-28T03:40:52.253Z,1.98
2022-09-28T03:43:18.715Z,4.30
2022-09-28T03:45:54.036Z,3.28
2022-09-28T03:48:32.399Z,6.55
2022-09-28T03:53:33.612Z,5.07
2022-09-28T03:56:08.343Z,6.60
2022-09-28T03:58:34.791Z,4.05
2022-09-28T04:01:05.970Z,6.53
2022-09-28T04:03:38.399Z,6.10
2022-09-28T04:06:04.991Z,7.72
2022-09-28T04:08:39.842Z,7.57
2022-09-28T04:11:08.821Z,7.35
2022-09-28T04:13:35.350Z,4.93
2022-09-28T04:16:02.032Z,8.38
2022-09-28T04:18:29.005Z,2.80
2022-09-28T04:21:00.695Z,4.97
2022-09-28T04:23:27.941Z,7.88
2022-09-28T04:25:54.620Z,8.45
2022-09-28T04:28:39.402Z,6.95
2022-09-28T04:31:10.766Z,8.10
2022-09-28T04:33:52.714Z,7.97
2022-09-28T04:36:19.852Z,7.45
2022-09-28T04:38:53.194Z,9.15
2022-09-28T04:41:21.671Z,6.95
2022-09-28T04:43:54.029Z,8.88
2022-09-28T04:46:20.583Z,4.63
2022-09-28T04:48:47.027Z,7.75
2022-09-28T04:51:13.442Z,8.27
2022-09-28T04:53:39.877Z,7.10
2022-09-28T04:56:08.552Z,7.75
2022-09-28T04:58:51.909Z,5.40
2022-09-28T05:01:27.966Z,7.45
2022-09-28T05:04:13.320Z,3.92
2022-09-28T05:06:45.348Z,10.63
2022-09-28T05:09:11.733Z,10.23
2022-09-28T05:11:41.153Z,7.85
2022-09-28T05:14:07.721Z,10.82
2022-09-28T05:16:34.396Z,9.38
2022-09-28T05:19:03.962Z,8.35
2022-09-28T05:21:33.715Z,8.85
2022-09-28T05:24:00.166Z,9.77
2022-09-28T05:26:26.676Z,4.72
2022-09-28T05:28:53.116Z,8.88
2022-09-28T05:31:22.239Z,9.02
2022-09-28T05:33:51.780Z,7.85
2022-09-28T05:36:18.271Z,9.57
2022-09-28T05:38:57.173Z,9.80
2022-09-28T05:44:01.732Z,7.93
2022-09-28T05:46:28.205Z,7.97
2022-09-28T05:48:54.638Z,7.15
2022-09-28T05:51:26.835Z,7.50
2022-09-28T05:53:58.813Z,8.57
2022-09-28T05:56:31.615Z,7.45
2022-09-28T05:59:00.478Z,8.77
2022-09-28T06:01:27.119Z,8.45
2022-09-28T06:03:53.618Z,8.88
2022-09-28T06:06:20.048Z,8.27
2022-09-28T06:08:48.344Z,8.98
2022-09-28T06:11:19.115Z,5.30
2022-09-28T06:13:45.570Z,6.57
2022-09-28T06:16:24.342Z,6.72
2022-09-28T06:21:29.096Z,4.35
2022-09-28T06:23:55.549Z,5.72
2022-09-28T06:26:21.998Z,6.68
2022-09-28T06:28:48.534Z,8.20
2022-09-28T06:31:25.079Z,9.38
2022-09-28T06:33:52.121Z,6.97
2022-09-28T06:36:24.523Z,8.85
2022-09-28T06:38:59.809Z,8.23
2022-09-28T06:41:26.233Z,8.80
2022-09-28T06:43:54.279Z,9.77
2022-09-28T06:46:22.557Z,7.53
2022-09-28T06:48:50.118Z,8.18
2022-09-28T06:51:19.627Z,7.00
2022-09-28T06:53:46.069Z,3.85
2022-09-28T06:56:21.124Z,4.38
2022-09-28T06:58:50.643Z,4.65
2022-09-28T07:01:17.145Z,3.40
2022-09-28T07:03:54.861Z,2.70
2022-09-28T07:06:25.703Z,3.40
2022-09-28T07:08:55.672Z,2.45
2022-09-28T07:11:41.487Z,2.22
2022-09-28T07:14:24.245Z,3.63
2022-09-28T07:17:15.048Z,4.25
2022-09-28T07:22:38.065Z,4.00
2022-09-28T07:25:09.212Z,3.10
2022-09-28T07:27:44.461Z,3.97
2022-09-28T07:30:11.610Z,4.88
2022-09-28T07:32:45.608Z,6.07
2022-09-28T07:35:18.145Z,5.75
2022-09-28T07:37:44.619Z,3.25
2022-09-28T07:40:35.475Z,5.20
2022-09-28T07:43:06.047Z,4.50
2022-09-28T07:45:50.450Z,4.13
2022-09-28T07:48:22.021Z,5.07
2022-09-28T07:51:00.705Z,5.07
2022-09-28T07:55:55.907Z,3.75
2022-09-28T07:58:22.795Z,3.60
2022-09-28T08:00:50.170Z,3.30
2022-09-28T08:03:22.544Z,2.60
2022-09-28T08:05:49.896Z,3.08
2022-09-28T08:08:16.524Z,1.80
2022-09-28T08:10:48.867Z,2.35
2022-09-28T08:16:09.922Z,1.52
2022-09-28T08:18:36.441Z,1.30
2022-09-28T08:21:22.714Z,1.55
2022-09-28T08:23:49.203Z,0.70
2022-09-28T08:26:17.231Z,0.65
2022-09-28T08:28:45.063Z,0.60
2022-09-28T08:31:20.894Z,0.57
2022-09-28T08:33:53.636Z,0.50
2022-09-28T08:36:35.526Z,0.50
2022-09-28T08:39:05.182Z,0.55
2022-09-28T08:42:04.627Z,0.40
2022-09-28T08:44:59.405Z,0.70
2022-09-28T08:48:12.363Z,0.40
2022-09-28T08:51:08.762Z,0.50
2022-09-28T08:53:51.224Z,0.60
2022-09-28T08:56:49.778Z,0.40
2022-09-28T08:59:20.027Z,0.40
2022-09-28T09:02:00.684Z,0.43
2022-09-28T09:04:27.456Z,0.63
2022-09-28T09:07:12.585Z,0.43
2022-09-28T09:09:55.367Z,0.40
2022-09-28T09:12:39.864Z,0.40
2022-09-28T09:15:15.123Z,0.40
2022-09-28T09:17:56.535Z,0.40
2022-09-28T09:21:02.813Z,0.40
2022-09-28T09:23:56.418Z,0.40
2022-09-28T09:26:55.603Z,0.52
2022-09-28T09:29:46.416Z,0.63
2022-09-28T09:32:44.198Z,0.55
2022-09-28T09:35:41.385Z,0.70
2022-09-28T09:38:17.460Z,0.40
2022-09-28T09:41:05.893Z,0.40
2022-09-28T09:43:50.158Z,0.60
2022-09-28T09:46:22.700Z,0.47
2022-09-28T09:49:03.785Z,0.60
2022-09-28T09:51:50.979Z,0.38
2022-09-28T09:54:36.812Z,0.40
2022-09-28T09:57:32.117Z,0.50
2022-09-28T09:59:59.644Z,0.43
2022-09-28T10:02:29.349Z,0.70
2022-09-28T10:05:06.929Z,0.40
2022-09-28T10:07:55.045Z,0.43
2022-09-28T10:10:35.644Z,0.50
2022-09-28T10:13:05.343Z,0.50
2022-09-28T10:15:35.417Z,0.90
2022-09-28T10:18:15.341Z,0.52
2022-09-28T10:20:44.889Z,0.60
2022-09-28T10:23:18.001Z,0.55
2022-09-28T10:25:46.474Z,0.40
2022-09-28T10:28:19.731Z,0.57
2022-09-28T10:30:46.269Z,0.50
2022-09-28T10:33:33.171Z,0.60
2022-09-28T10:36:10.697Z,0.40
2022-09-28T10:41:50.608Z,0.55
2022-09-28T10:44:20.802Z,0.68
2022-09-28T10:46:56.151Z,0.40
2022-09-28T10:49:27.089Z,0.52
2022-09-28T10:51:56.284Z,0.30
2022-09-28T10:54:26.114Z,0.50
2022-09-28T10:56:55.519Z,0.57
2022-09-28T10:59:32.733Z,0.75
2022-09-28T11:02:41.619Z,0.70
2022-09-28T11:05:20.996Z,0.80
2022-09-28T11:07:48.023Z,0.50
2022-09-28T11:10:43.376Z,0.60
2022-09-28T11:13:13.324Z,0.40
2022-09-28T11:15:42.280Z,0.30
2022-09-28T11:18:28.239Z,0.70
2022-09-28T11:21:11.022Z,0.60
2022-09-28T11:23:39.590Z,0.60
2022-09-28T11:26:07.494Z,0.70
2022-09-28T11:28:42.046Z,0.50
2022-09-28T11:31:14.964Z,0.50
2022-09-28T11:33:46.894Z,0.40
2022-09-28T11:36:13.280Z,0.47
2022-09-28T11:38:43.057Z,0.50
2022-09-28T11:41:27.909Z,0.50
2022-09-28T11:44:32.511Z,0.40
2022-09-28T11:47:33.402Z,0.60
2022-09-28T11:50:24.035Z,0.80
2022-09-28T11:53:10.634Z,0.47
2022-09-28T11:56:08.978Z,0.60
2022-09-28T11:58:57.641Z,0.50
2022-09-28T12:01:58.987Z,0.68
2022-09-28T12:04:39.215Z,0.80
2022-09-28T12:07:17.739Z,0.63
2022-09-28T12:09:59.200Z,0.52
2022-09-28T12:12:42.388Z,0.80
2022-09-28T12:16:20.035Z,0.60
2022-09-28T12:21:53.029Z,0.85
2022-09-28T12:24:41.826Z,0.63
2022-09-28T12:27:14.408Z,0.60
2022-09-28T12:29:53.240Z,0.93
2022-09-28T12:32:28.381Z,0.60
2022-09-28T12:35:04.189Z,0.73
2022-09-28T12:37:36.711Z,0.80
2022-09-28T12:40:06.407Z,0.50
2022-09-28T12:43:07.054Z,0.85
2022-09-28T12:46:11.965Z,0.60
2022-09-28T12:48:49.940Z,0.52
2022-09-28T12:51:54.585Z,0.50
2022-09-28T12:54:48.240Z,0.70
2022-09-28T12:57:33.035Z,0.70
2022-09-28T13:00:08.407Z,1.00
2022-09-28T13:02:57.420Z,0.85
2022-09-28T13:05:40.321Z,0.85
2022-09-28T13:08:12.275Z,0.70
2022-09-28T13:11:03.161Z,0.80
2022-09-28T13:14:05.222Z,0.68
2022-09-28T13:16:51.835Z,0.93
2022-09-28T13:20:03.880Z,0.80
2022-09-28T13:22:30.272Z,0.55
2022-09-28T13:25:12.924Z,0.70
2022-09-28T13:27:45.487Z,0.75
2022-09-28T13:30:13.789Z,0.55
2022-09-28T13:32:40.805Z,0.98
2022-09-28T13:35:11.993Z,0.60
2022-09-28T13:37:38.403Z,0.80
2022-09-28T13:40:11.532Z,0.85
2022-09-28T13:43:01.605Z,0.70
2022-09-28T13:45:54.621Z,1.10
2022-09-28T13:48:25.027Z,0.65
2022-09-28T13:51:22.022Z,0.55
2022-09-28T13:54:03.471Z,0.60
2022-09-28T13:56:51.160Z,0.77
2022-09-28T13:59:32.672Z,0.70
2022-09-28T14:02:07.108Z,0.70
2022-09-28T14:05:05.586Z,0.70
2022-09-28T14:07:34.827Z,0.95
2022-09-28T14:10:21.562Z,0.60
2022-09-28T14:12:49.512Z,0.50
2022-09-28T14:15:47.110Z,0.70
2022-09-28T14:18:27.013Z,0.90
2022-09-28T14:21:02.524Z,0.60
2022-09-28T14:24:08.894Z,0.70
2022-09-28T14:27:05.878Z,0.88
2022-09-28T14:29:34.428Z,0.75
2022-09-28T14:32:21.341Z,0.70
2022-09-28T14:35:01.218Z,0.82
2022-09-28T14:38:00.041Z,1.00
2022-09-28T14:41:14.245Z,0.82
2022-09-28T14:43:45.318Z,0.80
2022-09-28T14:46:11.882Z,0.57
2022-09-28T14:48:54.695Z,0.73
2022-09-28T14:51:27.128Z,0.55
2022-09-28T14:54:03.452Z,0.80
2022-09-28T14:56:33.062Z,0.60
2022-09-28T14:59:00.113Z,0.80
2022-09-28T15:01:26.589Z,0.60
2022-09-28T15:03:58.590Z,0.60
2022-09-28T15:06:25.424Z,0.60
2022-09-28T15:08:51.843Z,0.52
2022-09-28T15:11:23.449Z,0.60
2022-09-28T15:13:53.333Z,1.05
2022-09-28T15:16:23.836Z,0.90
2022-09-28T15:19:23.523Z,0.88
2022-09-28T15:21:51.054Z,0.60
2022-09-28T15:24:25.885Z,0.65
2022-09-28T15:26:53.125Z,0.50
2022-09-28T15:29:20.893Z,0.50
2022-09-28T15:31:54.640Z,1.15
2022-09-28T15:34:49.200Z,0.80
2022-09-28T15:37:18.109Z,0.52
2022-09-28T15:39:46.146Z,0.60
2022-09-28T15:42:12.614Z,0.75
2022-09-28T15:44:39.820Z,0.50
2022-09-28T15:47:07.952Z,0.70
2022-09-28T15:49:59.519Z,0.55
2022-09-28T15:52:27.726Z,0.75
2022-09-28T15:55:30.505Z,0.52
2022-09-28T15:58:20.185Z,0.40
2022-09-28T16:00:48.562Z,0.50
2022-09-28T16:03:21.216Z,1.00
2022-09-28T16:05:51.721Z,1.30
2022-09-28T16:08:27.152Z,1.45
2022-09-28T16:11:15.252Z,1.40
2022-09-28T16:13:54.936Z,1.30
2022-09-28T16:16:34.217Z,1.20
2022-09-28T16:19:02.573Z,0.70
2022-09-28T16:21:42.665Z,0.60
2022-09-28T16:24:21.427Z,0.70
2022-09-28T16:26:49.321Z,0.68
2022-09-28T16:29:28.632Z,0.70
2022-09-28T16:31:55.435Z,0.80
2022-09-28T16:34:27.774Z,0.77
2022-09-28T16:36:56.953Z,0.90
2022-09-28T16:39:23.390Z,0.90
2022-09-28T16:41:54.604Z,0.70
2022-09-28T16:44:29.238Z,0.60
2022-09-28T16:46:59.608Z,0.63
2022-09-28T16:49:26.744Z,0.70
2022-09-28T16:51:55.989Z,0.60
2022-09-28T16:54:44.291Z,0.88
2022-09-28T16:57:12.999Z,0.50
2022-09-28T16:59:39.742Z,0.90
2022-09-28T17:02:42.091Z,1.20
2022-09-28T17:05:06.994Z,1.13
2022-09-28T17:07:41.010Z,0.90
2022-09-28T17:10:56.196Z,0.82
2022-09-28T17:13:33.724Z,0.90
2022-09-28T17:16:10.486Z,1.00
2022-09-28T17:18:39.001Z,0.95
2022-09-28T17:21:18.745Z,2.22
2022-09-28T17:23:49.877Z,3.45
2022-09-28T17:26:36.787Z,4.50
2022-09-28T17:29:03.427Z,5.65
2022-09-28T17:31:30.304Z,5.93
2022-09-28T17:33:57.141Z,3.13
2022-09-28T17:36:26.566Z,3.38
2022-09-28T17:38:53.048Z,2.80
2022-09-28T17:41:21.050Z,1.92
2022-09-28T17:43:50.578Z,1.75
2022-09-28T17:46:30.283Z,1.60
2022-09-28T17:49:02.388Z,1.92
2022-09-28T17:51:30.958Z,1.40
2022-09-28T17:53:58.125Z,1.50
2022-09-28T17:56:31.934Z,1.23
2022-09-28T17:59:00.825Z,1.30
2022-09-28T18:01:33.704Z,1.08
2022-09-28T18:04:02.196Z,1.10
2022-09-28T18:06:29.069Z,0.95
2022-09-28T18:08:56.975Z,1.10
2022-09-28T18:11:23.630Z,1.42
2022-09-28T18:13:50.087Z,0.75
2022-09-28T18:16:19.319Z,0.98
2022-09-28T18:18:47.421Z,1.20
2022-09-28T18:21:14.378Z,1.20
2022-09-28T18:23:43.612Z,0.68
2022-09-28T18:26:15.722Z,1.23
2022-09-28T18:28:42.229Z,1.10
2022-09-28T18:31:11.269Z,1.15
2022-09-28T18:33:40.824Z,0.90
2022-09-28T18:36:07.467Z,0.93
2022-09-28T18:38:39.131Z,1.30
2022-09-28T18:41:15.780Z,1.30
2022-09-28T18:43:48.816Z,1.52
2022-09-28T18:46:19.877Z,1.13
2022-09-28T18:48:48.951Z,1.40
2022-09-28T18:51:20.065Z,1.55
2022-09-28T18:53:46.672Z,1.35
2022-09-28T18:56:18.186Z,1.10
2022-09-28T18:58:46.024Z,1.17
2022-09-28T19:01:33.548Z,1.30
2022-09-28T19:04:10.958Z,1.13
2022-09-28T19:06:40.646Z,1.20
2022-09-28T19:09:08.180Z,0.90
2022-09-28T19:11:35.072Z,1.00
2022-09-28T19:14:01.614Z,5.78
2022-09-28T19:16:29.281Z,2.38
2022-09-28T19:18:59.080Z,1.70
2022-09-28T19:21:26.733Z,1.13
2022-09-28T19:23:55.215Z,2.33
2022-09-28T19:26:24.143Z,1.90
2022-09-28T19:28:50.896Z,1.83
2022-09-28T19:31:17.578Z,1.75
2022-09-28T19:33:46.377Z,1.88
2022-09-28T19:36:16.582Z,1.75
2022-09-28T19:41:43.422Z,1.65
2022-09-28T19:44:24.572Z,1.40
2022-09-28T19:46:59.302Z,1.63
2022-09-28T19:49:27.419Z,2.25
2022-09-28T19:52:12.798Z,1.50
2022-09-28T19:54:43.723Z,1.10
2022-09-28T19:57:12.607Z,1.58
2022-09-28T19:59:39.188Z,1.52
2022-09-28T20:02:06.277Z,1.70
2022-09-28T20:04:32.690Z,1.63
2022-09-28T20:06:59.237Z,1.10
2022-09-28T20:09:25.678Z,1.70
2022-09-28T20:11:53.029Z,2.05
2022-09-28T20:14:19.506Z,1.80
2022-09-28T20:16:48.746Z,2.70
2022-09-28T20:19:15.400Z,2.70
2022-09-28T20:21:41.894Z,2.83
2022-09-28T20:24:11.115Z,2.13
2022-09-28T20:26:37.921Z,2.45
2022-09-28T20:29:05.522Z,1.63
2022-09-28T20:31:31.988Z,1.40
2022-09-28T20:33:58.554Z,1.73
2022-09-28T20:36:25.518Z,2.00
2022-09-28T20:38:53.906Z,1.75
2022-09-28T20:41:22.376Z,2.38
2022-09-28T20:43:54.371Z,1.08
2022-09-28T20:46:21.955Z,0.95
2022-09-28T20:48:51.916Z,1.52
2022-09-28T20:51:19.803Z,1.83
2022-09-28T20:53:51.427Z,2.08
2022-09-28T20:56:21.216Z,2.13
2022-09-28T20:58:50.573Z,1.80
2022-09-28T21:01:18.332Z,1.73
2022-09-28T21:03:52.120Z,2.13
2022-09-28T21:06:20.160Z,2.10
2022-09-28T21:08:46.625Z,1.33
2022-09-28T21:11:22.381Z,2.13
2022-09-28T21:13:52.820Z,2.30
2022-09-28T21:16:19.308Z,2.08
2022-09-28T21:18:59.620Z,2.10
2022-09-28T21:21:26.880Z,2.40
2022-09-28T21:23:53.948Z,2.05
2022-09-28T21:26:25.072Z,2.83
2022-09-28T21:29:13.937Z,1.70
2022-09-28T21:31:50.652Z,1.80
2022-09-28T21:34:21.215Z,1.88
2022-09-28T21:36:51.193Z,1.63
2022-09-28T21:39:18.610Z,2.20
2022-09-28T21:41:45.298Z,2.42
2022-09-28T21:44:11.789Z,2.33
2022-09-28T21:46:38.700Z,2.38
2022-09-28T21:49:09.988Z,1.83
2022-09-28T21:51:37.947Z,2.30
2022-09-28T21:54:04.644Z,2.17
2022-09-28T21:56:31.080Z,2.42
2022-09-28T21:58:57.554Z,2.42
2022-09-28T22:01:25.511Z,2.03
2022-09-28T22:03:54.221Z,3.08
2022-09-28T22:06:22.385Z,2.38
2022-09-28T22:08:49.391Z,2.00
2022-09-28T22:11:18.453Z,1.63
2022-09-28T22:13:50.254Z,1.83
2022-09-28T22:16:18.525Z,1.95
2022-09-28T22:18:45.327Z,2.17
2022-09-28T22:21:20.676Z,1.95
2022-09-28T22:23:47.749Z,1.70
2022-09-28T22:26:20.641Z,2.13
2022-09-28T22:29:08.420Z,2.00
2022-09-28T22:31:37.457Z,1.90
2022-09-28T22:34:04.963Z,1.60
2022-09-28T22:36:31.955Z,1.90
2022-09-28T22:38:58.476Z,1.02
2022-09-28T22:41:25.158Z,1.30
2022-09-28T22:43:59.167Z,1.92
2022-09-28T22:46:29.782Z,0.93
2022-09-28T22:48:58.242Z,1.67
2022-09-28T22:51:26.759Z,1.50
2022-09-28T22:53:53.211Z,2.00
2022-09-28T22:56:19.851Z,2.25
2022-09-28T22:58:47.624Z,1.42
2022-09-28T23:01:22.787Z,0.85
2022-09-28T23:03:50.793Z,1.30
2022-09-28T23:06:19.063Z,2.00
2022-09-28T23:08:45.832Z,1.55
2022-09-28T23:11:12.309Z,1.88
2022-09-28T23:13:39.842Z,0.90
2022-09-28T23:16:08.444Z,1.63
2022-09-28T23:18:38.053Z,1.20
2022-09-28T23:21:10.098Z,2.67
2022-09-28T23:23:39.188Z,1.67
2022-09-28T23:26:19.601Z,2.00
2022-09-28T23:28:46.184Z,1.95
2022-09-28T23:31:26.140Z,1.83
2022-09-28T23:33:57.601Z,1.80
2022-09-28T23:36:24.072Z,1.80
2022-09-28T23:38:50.608Z,1.85
2022-09-28T23:41:17.141Z,1.35
2022-09-28T23:43:45.047Z,2.38
2022-09-28T23:46:11.783Z,1.42
2022-09-28T23:48:38.779Z,2.22
2022-09-28T23:51:06.540Z,2.20
2022-09-28T23:53:36.052Z,1.80
2022-09-28T23:56:02.642Z,1.42
2022-09-28T23:58:29.198Z,1.70
